Terminal Aerodrome Forecast
Issued by NWS Albany, NY

Home | Current Version | Previous Version | Text Only | Print | Product List | Glossary On
Versions: 1 2 3 4 5 6 7 8 9 10 11 12 13
000
FTUS41 KALY 202300
TAFALB
TAF
KALB 202324Z 2100/2124 18010G19KT P6SM SCT040 BKN250
     FM210500 18010KT P6SM SCT015 BKN025
     FM210700 18009KT P6SM OVC015
     FM211000 18008KT 4SM BR BKN007 OVC012
     FM211400 18011G18KT P6SM BKN015 OVC025
     FM211600 18008KT P6SM BKN040
     FM212100 21007KT P6SM VCSH BKN040=

USA.gov is the U.S. government's official web portal to all federal, state and local government web resources and services.